createdAt,value
2017-10-17T00:00:27.194Z,101227
2017-10-17T00:02:55.494Z,101229
2017-10-17T00:05:24.568Z,101229
2017-10-17T00:07:52.869Z,101225
2017-10-17T00:10:21.901Z,101229
2017-10-17T00:12:50.997Z,101223
2017-10-17T00:15:19.255Z,101225
2017-10-17T00:17:47.515Z,101215
2017-10-17T00:20:15.891Z,101226
2017-10-17T00:22:44.231Z,101225
2017-10-17T00:25:12.509Z,101231
2017-10-17T00:27:40.778Z,101231
2017-10-17T00:30:09.091Z,101232
2017-10-17T00:32:37.362Z,101232
2017-10-17T00:38:08.431Z,101231
2017-10-17T00:40:36.856Z,101222
2017-10-17T00:43:06.000Z,101228
2017-10-17T00:45:34.267Z,101231
2017-10-17T00:48:02.533Z,101225
2017-10-17T00:50:30.911Z,101219
2017-10-17T00:52:59.184Z,101220
2017-10-17T00:55:27.480Z,101217
2017-10-17T00:57:56.243Z,101217
2017-10-17T01:00:24.581Z,101226
2017-10-17T01:02:52.895Z,101219
2017-10-17T01:05:21.270Z,101229
2017-10-17T01:07:49.576Z,101224
2017-10-17T01:10:17.868Z,101223
2017-10-17T01:12:46.201Z,101225
2017-10-17T01:15:14.472Z,101224
2017-10-17T01:17:42.767Z,101226
2017-10-17T01:20:20.861Z,101222
2017-10-17T01:22:49.132Z,101223
2017-10-17T01:25:17.455Z,101213
2017-10-17T01:27:45.725Z,101211
2017-10-17T01:30:16.832Z,101203
2017-10-17T01:32:45.102Z,101195
2017-10-17T01:35:14.314Z,101199
2017-10-17T01:37:42.630Z,101198
2017-10-17T01:40:26.765Z,101193
2017-10-17T01:42:55.079Z,101207
2017-10-17T01:45:25.012Z,101201
2017-10-17T01:48:08.768Z,101201
2017-10-17T01:50:38.570Z,101196
2017-10-17T01:53:27.145Z,101195
2017-10-17T01:55:55.439Z,101191
2017-10-17T01:58:27.260Z,101186
2017-10-17T02:00:55.524Z,101194
2017-10-17T02:03:23.865Z,101201
2017-10-17T02:05:52.185Z,101200
2017-10-17T02:08:20.477Z,101198
2017-10-17T02:11:10.229Z,101197
2017-10-17T02:13:38.552Z,101193
2017-10-17T02:16:06.955Z,101189
2017-10-17T02:18:37.655Z,101188
2017-10-17T02:21:07.809Z,101189
2017-10-17T02:23:36.917Z,101188
2017-10-17T02:26:31.528Z,101189
2017-10-17T02:29:12.199Z,101190
2017-10-17T02:31:40.468Z,101187
2017-10-17T02:34:34.064Z,101186
2017-10-17T02:37:02.298Z,101184
2017-10-17T02:39:31.324Z,101185
2017-10-17T02:41:59.678Z,101192
2017-10-17T02:44:27.980Z,101190
2017-10-17T02:46:56.898Z,101190
2017-10-17T02:52:26.611Z,101186
2017-10-17T02:54:54.892Z,101185
2017-10-17T02:57:23.185Z,101188
2017-10-17T02:59:54.070Z,101193
2017-10-17T03:02:29.733Z,101186
2017-10-17T03:05:02.443Z,101189
2017-10-17T03:07:30.793Z,101203
2017-10-17T03:09:59.110Z,101188
2017-10-17T03:12:27.367Z,101188
2017-10-17T03:15:00.861Z,101190
2017-10-17T03:17:29.142Z,101190
2017-10-17T03:19:57.454Z,101188
2017-10-17T03:22:26.523Z,101196
2017-10-17T03:24:59.268Z,101195
2017-10-17T03:27:27.558Z,101197
2017-10-17T03:29:55.842Z,101187
2017-10-17T03:32:24.250Z,101190
2017-10-17T03:34:53.300Z,101195
2017-10-17T03:37:42.301Z,101202
2017-10-17T03:40:12.338Z,101205
2017-10-17T03:42:42.284Z,101208
2017-10-17T03:45:14.069Z,101206
2017-10-17T03:47:48.415Z,101206
2017-10-17T03:50:37.900Z,101202
2017-10-17T03:53:42.084Z,101210
2017-10-17T03:56:13.927Z,101213
2017-10-17T03:58:44.748Z,101202
2017-10-17T04:01:13.078Z,101208
2017-10-17T04:17:35.934Z,101201
2017-10-17T04:20:18.503Z,101200
2017-10-17T04:22:51.151Z,101196
2017-10-17T04:25:21.234Z,101194
2017-10-17T04:28:41.464Z,101194
2017-10-17T04:31:17.340Z,101194
2017-10-17T04:36:55.446Z,101190
2017-10-17T04:39:23.781Z,101188
2017-10-17T04:45:21.093Z,101184
2017-10-17T05:01:40.633Z,101201
2017-10-17T05:04:49.041Z,101183
2017-10-17T05:10:21.472Z,101199
2017-10-17T05:26:30.174Z,101207
2017-10-17T05:29:08.661Z,101206
2017-10-17T05:31:37.757Z,101204
2017-10-17T05:34:09.795Z,101209
2017-10-17T05:39:52.220Z,101211
2017-10-17T05:42:20.561Z,101207
2017-10-17T05:44:51.862Z,101205
2017-10-17T05:47:26.467Z,101208
2017-10-17T05:50:16.109Z,101212
2017-10-17T05:52:46.368Z,101211
2017-10-17T05:55:14.767Z,101209
2017-10-17T05:57:43.840Z,101213
2017-10-17T06:00:12.935Z,101206
2017-10-17T06:02:41.287Z,101202
2017-10-17T06:05:09.542Z,101207
2017-10-17T06:07:37.794Z,101205
2017-10-17T06:10:06.116Z,101205
2017-10-17T06:12:34.377Z,101206
2017-10-17T06:15:02.649Z,101200
2017-10-17T06:17:30.995Z,101207
2017-10-17T06:19:59.295Z,101208
2017-10-17T06:22:27.565Z,101206
2017-10-17T06:24:55.866Z,101210
2017-10-17T06:27:24.177Z,101210
2017-10-17T06:29:53.317Z,101213
2017-10-17T06:32:21.648Z,101210
2017-10-17T06:34:49.891Z,101212
2017-10-17T06:37:18.221Z,101214
2017-10-17T06:39:47.219Z,101208
2017-10-17T06:42:16.255Z,101206
2017-10-17T06:44:44.707Z,101210
2017-10-17T06:47:12.985Z,101213
2017-10-17T06:49:41.240Z,101199
2017-10-17T06:52:09.699Z,101204
2017-10-17T06:54:37.945Z,101210
2017-10-17T06:57:06.194Z,101206
2017-10-17T06:59:35.279Z,101217
2017-10-17T07:02:03.650Z,101213
2017-10-17T07:04:31.942Z,101207
2017-10-17T07:07:00.283Z,101210
2017-10-17T07:09:28.627Z,101209
2017-10-17T07:11:57.109Z,101208
2017-10-17T07:14:26.871Z,101198
2017-10-17T07:16:55.168Z,101200
2017-10-17T07:19:23.429Z,101205
2017-10-17T07:21:55.031Z,101190
2017-10-17T07:24:23.438Z,101195
2017-10-17T07:26:53.298Z,101192
2017-10-17T07:29:21.669Z,101202
2017-10-17T07:31:50.866Z,101195
2017-10-17T07:34:19.145Z,101195
2017-10-17T07:36:47.492Z,101189
2017-10-17T07:39:16.650Z,101190
2017-10-17T07:41:45.006Z,101187
2017-10-17T07:44:13.282Z,101183
2017-10-17T07:46:41.568Z,101180
2017-10-17T07:49:11.647Z,101181
2017-10-17T07:51:39.970Z,101177
2017-10-17T07:54:08.470Z,101181
2017-10-17T07:56:37.590Z,101178
2017-10-17T07:59:07.015Z,101173
2017-10-17T08:01:35.354Z,101174
2017-10-17T08:04:04.409Z,101170
2017-10-17T08:06:32.700Z,101171
2017-10-17T08:09:01.105Z,101167
2017-10-17T08:11:29.422Z,101160
2017-10-17T08:13:57.696Z,101164
2017-10-17T08:16:26.012Z,101159
2017-10-17T08:18:54.250Z,101164
2017-10-17T08:21:22.509Z,101170
2017-10-17T08:23:51.127Z,101164
2017-10-17T08:26:20.052Z,101160
2017-10-17T08:28:49.110Z,101157
2017-10-17T08:31:17.440Z,101152
2017-10-17T08:33:45.723Z,101162
2017-10-17T08:36:14.471Z,101159
2017-10-17T08:38:42.814Z,101161
2017-10-17T08:41:11.178Z,101160
2017-10-17T08:43:39.471Z,101151
2017-10-17T08:46:07.762Z,101157
2017-10-17T08:48:36.135Z,101157
2017-10-17T08:51:04.422Z,101157
2017-10-17T08:53:32.671Z,101149
2017-10-17T08:56:02.149Z,101155
2017-10-17T08:58:30.530Z,101156
2017-10-17T09:00:58.878Z,101155
2017-10-17T09:03:27.157Z,101155
2017-10-17T09:05:55.430Z,101150
2017-10-17T09:08:23.849Z,101150
2017-10-17T09:10:52.086Z,101145
2017-10-17T09:13:20.427Z,101144
2017-10-17T09:15:48.791Z,101144
2017-10-17T09:18:17.041Z,101149
2017-10-17T09:20:45.429Z,101149
2017-10-17T09:23:13.712Z,101148
2017-10-17T09:25:41.991Z,101144
2017-10-17T09:28:10.380Z,101143
2017-10-17T09:30:38.679Z,101140
2017-10-17T09:33:06.955Z,101144
2017-10-17T09:35:35.305Z,101138
2017-10-17T09:38:05.035Z,101140
2017-10-17T09:40:33.369Z,101137
2017-10-17T09:43:02.727Z,101136
2017-10-17T09:45:31.188Z,101137
2017-10-17T09:48:01.402Z,101136
2017-10-17T09:50:29.709Z,101136
2017-10-17T09:52:58.512Z,101128
2017-10-17T09:55:28.066Z,101133
2017-10-17T09:57:56.385Z,101126
2017-10-17T10:00:24.670Z,101135
2017-10-17T10:02:53.677Z,101132
2017-10-17T10:05:22.733Z,101129
2017-10-17T10:07:50.998Z,101122
2017-10-17T10:10:19.430Z,101123
2017-10-17T10:12:47.683Z,101116
2017-10-17T10:15:16.189Z,101109
2017-10-17T10:17:44.632Z,101102
2017-10-17T10:20:12.970Z,101102
2017-10-17T10:22:41.578Z,101105
2017-10-17T10:25:10.023Z,101099
2017-10-17T10:27:39.036Z,101090
2017-10-17T10:30:07.507Z,101086
2017-10-17T10:32:35.826Z,101092
2017-10-17T10:35:04.230Z,101077
2017-10-17T10:37:33.621Z,101080
2017-10-17T10:40:02.686Z,101071
2017-10-17T10:42:31.107Z,101077
2017-10-17T10:44:59.402Z,101070
2017-10-17T10:47:27.689Z,101071
2017-10-17T10:49:56.046Z,101064
2017-10-17T10:52:24.297Z,101060
2017-10-17T10:54:52.669Z,101055
2017-10-17T10:57:21.567Z,101050
2017-10-17T10:59:51.092Z,101058
2017-10-17T11:02:19.728Z,101052
2017-10-17T11:04:48.057Z,101045
2017-10-17T11:07:16.301Z,101057
2017-10-17T11:09:45.310Z,101046
2017-10-17T11:12:13.678Z,101048
2017-10-17T11:14:43.399Z,101043
2017-10-17T11:17:11.669Z,101036
2017-10-17T11:19:41.033Z,101045
2017-10-17T11:22:09.286Z,101036
2017-10-17T11:24:37.676Z,101036
2017-10-17T11:27:05.967Z,101028
2017-10-17T11:29:34.276Z,101025
2017-10-17T11:32:02.583Z,101019
2017-10-17T11:34:30.888Z,101017
2017-10-17T11:36:59.456Z,101008
2017-10-17T11:39:27.742Z,101012
2017-10-17T11:42:13.914Z,100999
2017-10-17T11:44:42.167Z,101006
2017-10-17T11:47:10.461Z,100995
2017-10-17T11:49:38.801Z,100991
2017-10-17T11:52:07.827Z,100996
2017-10-17T11:54:36.091Z,100991
2017-10-17T11:57:04.406Z,100987
2017-10-17T11:59:33.467Z,100987
2017-10-17T12:02:01.731Z,100992
2017-10-17T12:04:30.836Z,100985
2017-10-17T12:06:59.088Z,100981
2017-10-17T12:09:28.108Z,100986
2017-10-17T12:11:56.437Z,100980
2017-10-17T12:14:25.809Z,100977
2017-10-17T12:16:54.053Z,100972
2017-10-17T12:19:22.373Z,100971
2017-10-17T12:21:50.752Z,100970
2017-10-17T12:24:19.963Z,100971
2017-10-17T12:26:49.284Z,100957
2017-10-17T12:29:18.334Z,100957
2017-10-17T12:31:46.579Z,100956
2017-10-17T12:34:14.892Z,100955
2017-10-17T12:36:43.215Z,100955
2017-10-17T12:39:12.255Z,100950
2017-10-17T12:41:40.539Z,100947
2017-10-17T12:44:08.781Z,100945
2017-10-17T12:46:38.572Z,100943
2017-10-17T12:49:07.589Z,100935
2017-10-17T12:51:35.856Z,100936
2017-10-17T12:54:04.191Z,100933
2017-10-17T12:56:32.461Z,100932
2017-10-17T12:59:00.734Z,100929
2017-10-17T13:01:29.051Z,100935
2017-10-17T13:03:58.072Z,100930
2017-10-17T13:06:26.324Z,100928
2017-10-17T13:08:54.625Z,100927
2017-10-17T13:11:22.855Z,100920
2017-10-17T13:13:51.325Z,100916
2017-10-17T13:16:19.649Z,100921
2017-10-17T13:18:47.919Z,100921
2017-10-17T13:21:16.199Z,100923
2017-10-17T13:23:45.414Z,100915
2017-10-17T13:26:13.711Z,100916
2017-10-17T13:28:41.953Z,100915
2017-10-17T13:31:10.215Z,100922
2017-10-17T13:33:38.456Z,100909
2017-10-17T13:36:06.729Z,100911
2017-10-17T13:38:34.966Z,100904
2017-10-17T13:41:03.226Z,100901
2017-10-17T13:43:31.489Z,100904
2017-10-17T13:45:59.802Z,100904
2017-10-17T13:48:28.463Z,100894
2017-10-17T13:50:56.727Z,100899
2017-10-17T13:53:25.803Z,100883
2017-10-17T13:55:54.792Z,100886
2017-10-17T13:58:24.612Z,100890
2017-10-17T14:00:53.615Z,100889
2017-10-17T14:03:21.883Z,100882
2017-10-17T14:05:51.498Z,100878
2017-10-17T14:08:21.415Z,100878
2017-10-17T14:10:49.663Z,100878
2017-10-17T14:13:18.767Z,100875
2017-10-17T14:15:47.023Z,100872
2017-10-17T14:18:15.401Z,100874
2017-10-17T14:20:43.735Z,100868
2017-10-17T14:23:12.886Z,100872
2017-10-17T14:25:41.156Z,100863
2017-10-17T14:28:10.174Z,100863
2017-10-17T14:30:39.263Z,100862
2017-10-17T14:33:08.288Z,100861
2017-10-17T14:35:36.545Z,100862
2017-10-17T14:38:04.823Z,100858
2017-10-17T14:40:33.125Z,100859
2017-10-17T14:43:01.435Z,100858
2017-10-17T14:45:29.725Z,100854
2017-10-17T14:47:58.774Z,100854
2017-10-17T14:50:27.040Z,100851
2017-10-17T14:52:55.360Z,100851
2017-10-17T14:55:23.673Z,100849
2017-10-17T14:57:51.976Z,100854
2017-10-17T15:00:20.340Z,100844
2017-10-17T15:02:48.600Z,100839
2017-10-17T15:05:16.877Z,100839
2017-10-17T15:07:46.498Z,100836
2017-10-17T15:10:14.791Z,100844
2017-10-17T15:12:43.023Z,100838
2017-10-17T15:15:12.119Z,100844
2017-10-17T15:17:41.303Z,100835
2017-10-17T15:20:09.541Z,100828
2017-10-17T15:22:37.846Z,100822
2017-10-17T15:25:06.090Z,100823
2017-10-17T15:27:34.384Z,100826
2017-10-17T15:30:02.695Z,100819
2017-10-17T15:32:31.730Z,100823
2017-10-17T15:34:59.967Z,100817
2017-10-17T15:37:28.293Z,100818
2017-10-17T15:39:56.568Z,100812
2017-10-17T15:42:24.793Z,100815
2017-10-17T15:44:53.102Z,100810
2017-10-17T15:47:21.347Z,100814
2017-10-17T15:49:49.662Z,100812
2017-10-17T15:52:17.922Z,100810
2017-10-17T15:54:46.174Z,100806
2017-10-17T15:57:14.557Z,100797
2017-10-17T15:59:42.831Z,100802
2017-10-17T16:02:11.090Z,100805
2017-10-17T16:04:40.198Z,100803
2017-10-17T16:07:08.505Z,100808
2017-10-17T16:09:36.771Z,100803
2017-10-17T16:12:05.147Z,100809
2017-10-17T16:14:33.496Z,100812
2017-10-17T16:17:02.616Z,100806
2017-10-17T16:19:30.964Z,100807
2017-10-17T16:21:59.282Z,100804
2017-10-17T16:24:27.563Z,100803
2017-10-17T16:26:56.190Z,100806
2017-10-17T16:29:24.479Z,100803
2017-10-17T16:31:53.712Z,100800
2017-10-17T16:34:21.994Z,100799
2017-10-17T16:36:50.277Z,100803
2017-10-17T16:39:18.571Z,100806
2017-10-17T16:41:46.854Z,100811
2017-10-17T16:44:15.299Z,100810
2017-10-17T16:46:43.630Z,100820
2017-10-17T16:49:11.879Z,100811
2017-10-17T16:51:40.200Z,100807
2017-10-17T16:54:08.712Z,100810
2017-10-17T16:56:37.905Z,100811
2017-10-17T16:59:06.181Z,100813
2017-10-17T17:01:34.488Z,100812
2017-10-17T17:04:02.827Z,100813
2017-10-17T17:06:31.100Z,100815
2017-10-17T17:08:59.607Z,100818
2017-10-17T17:11:28.213Z,100818
2017-10-17T17:13:57.265Z,100811
2017-10-17T17:16:25.639Z,100814
2017-10-17T17:18:54.664Z,100814
2017-10-17T17:21:22.995Z,100813
2017-10-17T17:23:51.431Z,100813
2017-10-17T17:26:19.841Z,100808
2017-10-17T17:28:48.716Z,100806
2017-10-17T17:31:17.112Z,100804
2017-10-17T17:33:45.467Z,100805
2017-10-17T17:36:13.773Z,100807
2017-10-17T17:38:42.127Z,100807
2017-10-17T17:41:10.522Z,100805
2017-10-17T17:43:39.539Z,100802
2017-10-17T17:46:07.835Z,100801
2017-10-17T17:48:37.474Z,100801
2017-10-17T17:51:06.049Z,100800
2017-10-17T17:53:36.512Z,100801
2017-10-17T17:56:05.558Z,100795
2017-10-17T17:58:34.670Z,100805
2017-10-17T18:01:03.156Z,100805
2017-10-17T18:03:31.457Z,100798
2017-10-17T18:05:59.835Z,100798
2017-10-17T18:08:28.431Z,100799
2017-10-17T18:10:56.821Z,100797
2017-10-17T18:13:25.889Z,100798
2017-10-17T18:15:55.311Z,100798
2017-10-17T18:18:24.569Z,100803
2017-10-17T18:20:55.946Z,100799
2017-10-17T18:23:25.108Z,100800
2017-10-17T18:25:53.546Z,100798
2017-10-17T18:28:22.191Z,100791
2017-10-17T18:30:51.390Z,100793
2017-10-17T18:33:20.502Z,100791
2017-10-17T18:35:51.748Z,100794
2017-10-17T18:38:21.245Z,100788
2017-10-17T18:40:50.722Z,100785
2017-10-17T18:43:19.749Z,100784
2017-10-17T18:45:48.087Z,100781
2017-10-17T18:48:16.768Z,100775
2017-10-17T18:50:45.646Z,100774
2017-10-17T18:53:13.942Z,100782
2017-10-17T18:55:42.232Z,100772
2017-10-17T18:58:11.432Z,100774
2017-10-17T19:00:39.974Z,100765
2017-10-17T19:03:09.675Z,100763
2017-10-17T19:05:39.009Z,100761
2017-10-17T19:08:08.674Z,100773
2017-10-17T19:10:37.036Z,100765
2017-10-17T19:13:05.578Z,100777
2017-10-17T19:15:34.271Z,100762
2017-10-17T19:18:02.549Z,100757
2017-10-17T19:20:31.390Z,100745
2017-10-17T19:22:59.974Z,100757
2017-10-17T19:25:28.439Z,100756
2017-10-17T19:27:56.738Z,100748
2017-10-17T19:30:25.280Z,100749
2017-10-17T19:32:53.617Z,100749
2017-10-17T19:35:21.940Z,100755
2017-10-17T19:37:50.387Z,100761
2017-10-17T19:40:18.895Z,100762
2017-10-17T19:42:50.397Z,100758
2017-10-17T19:45:18.767Z,100760
2017-10-17T19:47:48.053Z,100767
2017-10-17T19:50:16.583Z,100763
2017-10-17T19:52:46.785Z,100762
2017-10-17T19:55:15.148Z,100762
2017-10-17T19:57:43.564Z,100759
2017-10-17T20:00:12.641Z,100760
2017-10-17T20:02:42.983Z,100756
2017-10-17T20:05:12.011Z,100752
2017-10-17T20:07:40.292Z,100745
2017-10-17T20:10:08.870Z,100755
2017-10-17T20:12:41.595Z,100761
2017-10-17T20:15:10.699Z,100761
2017-10-17T20:17:39.037Z,100759
2017-10-17T20:20:07.337Z,100761
2017-10-17T20:22:38.711Z,100757
2017-10-17T20:25:07.764Z,100753
2017-10-17T20:27:36.123Z,100760
2017-10-17T20:30:04.478Z,100751
2017-10-17T20:32:35.303Z,100758
2017-10-17T20:35:03.647Z,100756
2017-10-17T20:37:33.173Z,100756
2017-10-17T20:40:02.249Z,100760
2017-10-17T20:42:32.991Z,100755
2017-10-17T20:45:01.461Z,100757
2017-10-17T20:47:29.780Z,100750
2017-10-17T20:49:58.833Z,100747
2017-10-17T20:52:27.246Z,100751
2017-10-17T20:54:56.277Z,100756
2017-10-17T20:57:26.573Z,100749
2017-10-17T20:59:54.964Z,100759
2017-10-17T21:02:23.267Z,100747
2017-10-17T21:04:51.619Z,100749
2017-10-17T21:07:19.942Z,100742
2017-10-17T21:09:48.237Z,100745
2017-10-17T21:12:17.483Z,100750
2017-10-17T21:14:45.945Z,100746
2017-10-17T21:17:14.240Z,100746
2017-10-17T21:19:42.584Z,100750
2017-10-17T21:22:10.879Z,100746
2017-10-17T21:24:39.657Z,100742
2017-10-17T21:27:08.067Z,100740
2017-10-17T21:29:36.337Z,100743
2017-10-17T21:32:04.638Z,100734
2017-10-17T21:34:32.962Z,100735
2017-10-17T21:37:01.312Z,100726
2017-10-17T21:39:29.631Z,100729
2017-10-17T21:41:58.059Z,100725
2017-10-17T21:44:26.432Z,100724
2017-10-17T21:46:54.700Z,100717
2017-10-17T21:49:23.039Z,100713
2017-10-17T21:51:51.562Z,100719
2017-10-17T21:54:19.848Z,100717
2017-10-17T21:56:48.205Z,100721
2017-10-17T21:59:16.540Z,100723
2017-10-17T22:01:44.849Z,100723
2017-10-17T22:04:13.137Z,100712
2017-10-17T22:06:42.306Z,100715
2017-10-17T22:09:10.588Z,100705
2017-10-17T22:11:39.029Z,100717
2017-10-17T22:14:08.058Z,100710
2017-10-17T22:16:36.354Z,100711
2017-10-17T22:19:04.708Z,100716
2017-10-17T22:21:33.052Z,100718
2017-10-17T22:24:02.102Z,100706
2017-10-17T22:26:31.476Z,100706
2017-10-17T22:28:59.780Z,100705
2017-10-17T22:31:28.069Z,100697
2017-10-17T22:33:56.495Z,100707
2017-10-17T22:36:24.770Z,100700
2017-10-17T22:38:53.168Z,100703
2017-10-17T22:41:21.860Z,100701
2017-10-17T22:43:50.130Z,100698
2017-10-17T22:46:18.452Z,100707
2017-10-17T22:48:47.093Z,100705
2017-10-17T22:51:15.372Z,100705
2017-10-17T22:53:44.040Z,100702
2017-10-17T22:56:12.360Z,100706
2017-10-17T22:58:43.368Z,100706
2017-10-17T23:01:11.675Z,100694
2017-10-17T23:03:40.024Z,100696
2017-10-17T23:06:08.320Z,100686
2017-10-17T23:08:36.635Z,100694
2017-10-17T23:11:04.999Z,100687
2017-10-17T23:13:33.261Z,100684
2017-10-17T23:16:01.559Z,100683
2017-10-17T23:18:47.855Z,100676
2017-10-17T23:21:16.107Z,100674
2017-10-17T23:23:44.352Z,100676
2017-10-17T23:26:12.659Z,100681
2017-10-17T23:28:40.959Z,100680
2017-10-17T23:31:09.317Z,100687
2017-10-17T23:33:37.659Z,100686
2017-10-17T23:36:05.975Z,100681
2017-10-17T23:38:34.285Z,100680
2017-10-17T23:41:02.765Z,100686
2017-10-17T23:43:31.031Z,100688
2017-10-17T23:45:59.376Z,100665
2017-10-17T23:48:27.678Z,100672
2017-10-17T23:50:55.928Z,100673
2017-10-17T23:53:24.228Z,100677
2017-10-17T23:55:52.759Z,100667
2017-10-17T23:58:21.014Z,100666
